Time;durP1;ratioP1;P1;durP2;ratioP2;P2;SDS_P1;SDS_P2;PMS_P1;PMS_P2;Temp;Humidity;BMP_temperature;BMP_pressure;BME280_temperature;BME280_humidity;BME280_pressure;Samples;Min_cycle;Max_cycle;Signal;HPM_P1;HPM_P2
2022/04/17 00:00:40;;;;;;;;;;;;;;;;;;5062015;28;875;-68
2022/04/17 00:03:09;;;;;;;;;;;;;;;;;;5062097;28;1271;-68
2022/04/17 00:05:35;;;;;;;;;;;;;;;;;;5062020;28;895;-68
2022/04/17 00:08:00;;;;;;;;;;;;;;;;;;5061856;28;1890;-68
2022/04/17 00:10:25;;;;;;;;;;;;;;;;;;5061764;28;900;-68
2022/04/17 00:12:50;;;;;;;;;;;;;;;;;;5061429;28;1261;-68
2022/04/17 00:15:16;;;;;;;;;;;;;;;;;;5061741;28;903;-68
2022/04/17 00:17:44;;;;;;;;;;;;;;;;;;5061806;28;977;-68
2022/04/17 00:20:10;;;;;;;;;;;;;;;;;;5061679;28;875;-67
2022/04/17 00:22:35;;;;;;;;;;;;;;;;;;5061638;28;1277;-68
2022/04/17 00:25:01;;;;;;;;;;;;;;;;;;5061729;28;942;-68
2022/04/17 00:27:27;;;;;;;;;;;;;;;;;;5061943;28;1894;-68
2022/04/17 00:29:52;;;;;;;;;;;;;;;;;;5060220;28;863;-68
2022/04/17 00:32:18;;;;;;;;;;;;;;;;;;5061182;28;1196;-68
2022/04/17 00:34:44;;;;;;;;;;;;;;;;;;5059583;28;1436;-68
2022/04/17 00:37:10;;;;;;;;;;;;;;;;;;5061254;28;867;-68
2022/04/17 00:39:35;;;;;;;;;;;;;;;;;;5061270;28;886;-68
2022/04/17 00:42:04;;;;;;;;;;;;;;;;;;5061037;28;1180;-67
2022/04/17 00:44:30;;;;;;;;;;;;;;;;;;5060331;28;1474;-67
2022/04/17 00:46:55;;;;;;;;;;;;;;;;;;5061128;28;1958;-67
2022/04/17 00:49:20;;;;;;;;;;;;;;;;;;5061010;28;1001;-67
2022/04/17 00:51:46;;;;;;;;;;;;;;;;;;5060941;28;1200;-67
2022/04/17 00:54:12;;;;;;;;;;;;;;;;;;5061170;28;878;-67
2022/04/17 00:56:37;;;;;;;;;;;;;;;;;;5061188;28;1136;-67
2022/04/17 00:59:04;;;;;;;;;;;;;;;;;;5061114;28;832;-67
2022/04/17 01:01:33;;;;;;;;;;;;;;;;;;5061027;28;823;-67
2022/04/17 01:03:59;;;;;;;;;;;;;;;;;;5060870;28;843;-67
2022/04/17 01:06:24;;;;;;;;;;;;;;;;;;5060990;28;831;-67
2022/04/17 01:08:50;;;;;;;;;;;;;;;;;;5059599;28;1890;-67
2022/04/17 01:11:16;;;;;;;;;;;;;;;;;;5060969;28;918;-68
2022/04/17 01:13:42;;;;;;;;;;;;;;;;;;5060691;28;1187;-67
2022/04/17 01:16:08;;;;;;;;;;;;;;;;;;5060865;28;858;-67
2022/04/17 01:18:52;;;;;;;;;;;;;;;;;;5059595;28;1436;-67
2022/04/17 01:21:17;;;;;;;;;;;;;;;;;;5060804;28;1120;-67
2022/04/17 01:29:10;;;;;;;;;;;;;;;;;;5060755;28;1967;-67
2022/04/17 01:31:36;;;;;;;;;;;;;;;;;;5060982;28;1231;-67
2022/04/17 01:34:01;;;;;;;;;;;;;;;;;;5060511;28;917;-68
2022/04/17 01:36:26;;;;;;;;;;;;;;;;;;5060641;28;835;-67
2022/04/17 01:38:52;;;;;;;;;;;;;;;;;;5060601;28;1041;-67
2022/04/17 01:41:18;;;;;;;;;;;;;;;;;;5060698;28;804;-67
2022/04/17 01:43:43;;;;;;;;;;;;;;;;;;5060659;28;1279;-67
2022/04/17 01:46:12;;;;;;;;;;;;;;;;;;5060687;28;1065;-68
2022/04/17 01:48:39;;;;;;;;;;;;;;;;;;5064036;28;1897;-68
2022/04/17 01:51:05;;;;;;;;;;;;;;;;;;5063876;28;827;-67
2022/04/17 01:53:30;;;;;;;;;;;;;;;;;;5063699;28;1274;-67
2022/04/17 01:55:58;;;;;;;;;;;;;;;;;;5064046;28;907;-68
2022/04/17 01:58:23;;;;;;;;;;;;;;;;;;5064078;28;1013;-68
2022/04/17 02:00:49;;;;;;;;;;;;;;;;;;5063943;28;930;-67
2022/04/17 02:03:14;;;;;;;;;;;;;;;;;;5062348;28;1188;-67
2022/04/17 02:05:39;;;;;;;;;;;;;;;;;;5063765;28;982;-67
2022/04/17 02:08:06;;;;;;;;;;;;;;;;;;5063871;28;1957;-68
2022/04/17 02:10:31;;;;;;;;;;;;;;;;;;5062135;28;855;-68
2022/04/17 02:12:56;;;;;;;;;;;;;;;;;;5063410;28;1196;-68
2022/04/17 02:15:21;;;;;;;;;;;;;;;;;;5063547;28;1073;-67
2022/04/17 02:17:46;;;;;;;;;;;;;;;;;;5062357;28;942;-67
2022/04/17 02:20:12;;;;;;;;;;;;;;;;;;5063663;28;966;-68
2022/04/17 02:22:37;;;;;;;;;;;;;;;;;;5063186;28;1207;-67
2022/04/17 02:25:02;;;;;;;;;;;;;;;;;;5063780;28;823;-68
2022/04/17 02:27:27;;;;;;;;;;;;;;;;;;5063740;28;1957;-66
2022/04/17 02:29:53;;;;;;;;;;;;;;;;;;5063296;28;878;-67
2022/04/17 02:32:18;;;;;;;;;;;;;;;;;;5062999;28;1217;-67
2022/04/17 02:34:43;;;;;;;;;;;;;;;;;;5063548;28;931;-67
2022/04/17 02:37:09;;;;;;;;;;;;;;;;;;5063404;28;812;-67
2022/04/17 02:39:35;;;;;;;;;;;;;;;;;;5063267;28;875;-67
2022/04/17 02:42:00;;;;;;;;;;;;;;;;;;5062919;28;1211;-68
2022/04/17 02:44:25;;;;;;;;;;;;;;;;;;5063259;28;1068;-67
2022/04/17 02:49:35;;;;;;;;;;;;;;;;;;5063105;28;670;-67
2022/04/17 02:52:00;;;;;;;;;;;;;;;;;;5062737;28;1290;-67
2022/04/17 02:54:26;;;;;;;;;;;;;;;;;;5063227;28;859;-67
2022/04/17 02:56:51;;;;;;;;;;;;;;;;;;5063084;28;974;-67
2022/04/17 02:59:16;;;;;;;;;;;;;;;;;;5062121;28;816;-68
2022/04/17 03:07:22;;;;;;;;;;;;;;;;;;5062809;28;1948;-68
2022/04/17 03:09:47;;;;;;;;;;;;;;;;;;5062884;28;1048;-68
2022/04/17 03:12:13;;;;;;;;;;;;;;;;;;5062392;28;1246;-67
2022/04/17 03:14:38;;;;;;;;;;;;;;;;;;5063091;28;823;-68
2022/04/17 03:17:04;;;;;;;;;;;;;;;;;;5062882;28;799;-67
2022/04/17 03:19:29;;;;;;;;;;;;;;;;;;5062694;28;831;-67
2022/04/17 03:21:54;;;;;;;;;;;;;;;;;;5062660;28;1199;-67
2022/04/17 03:24:20;;;;;;;;;;;;;;;;;;5062634;28;875;-68
2022/04/17 03:26:45;;;;;;;;;;;;;;;;;;5062612;28;856;-67
2022/04/17 03:29:10;;;;;;;;;;;;;;;;;;5062484;28;1953;-68
2022/04/17 03:31:35;;;;;;;;;;;;;;;;;;5062433;28;1279;-68
2022/04/17 03:34:00;;;;;;;;;;;;;;;;;;5062241;28;850;-67
2022/04/17 03:36:26;;;;;;;;;;;;;;;;;;5062351;28;906;-68
2022/04/17 03:38:51;;;;;;;;;;;;;;;;;;5062355;28;803;-67
2022/04/17 03:41:16;;;;;;;;;;;;;;;;;;5062274;28;824;-68
2022/04/17 03:43:42;;;;;;;;;;;;;;;;;;5062120;28;1278;-68
2022/04/17 03:46:07;;;;;;;;;;;;;;;;;;5062416;28;887;-68
2022/04/17 03:48:32;;;;;;;;;;;;;;;;;;5062288;28;1894;-68
2022/04/17 03:50:57;;;;;;;;;;;;;;;;;;5062148;28;919;-68
2022/04/17 03:53:23;;;;;;;;;;;;;;;;;;5061803;28;1176;-68
2022/04/17 03:55:48;;;;;;;;;;;;;;;;;;5062189;28;856;-68
2022/04/17 03:58:14;;;;;;;;;;;;;;;;;;5062397;28;861;-68
2022/04/17 04:00:39;;;;;;;;;;;;;;;;;;5061967;28;856;-68
2022/04/17 04:03:04;;;;;;;;;;;;;;;;;;5061672;28;1305;-68
2022/04/17 04:05:31;;;;;;;;;;;;;;;;;;5061993;28;926;-68
2022/04/17 04:07:56;;;;;;;;;;;;;;;;;;5061888;28;1928;-68
2022/04/17 04:10:22;;;;;;;;;;;;;;;;;;5062025;28;851;-68
2022/04/17 04:12:48;;;;;;;;;;;;;;;;;;5061449;28;1263;-68
2022/04/17 04:15:16;;;;;;;;;;;;;;;;;;5061847;28;851;-68
2022/04/17 04:17:41;;;;;;;;;;;;;;;;;;5060547;28;863;-69
2022/04/17 04:20:07;;;;;;;;;;;;;;;;;;5061517;28;871;-66
2022/04/17 04:22:43;;;;;;;;;;;;;;;;;;5061088;28;1180;-68
2022/04/17 04:25:11;;;;;;;;;;;;;;;;;;5061722;28;828;-68
2022/04/17 04:30:32;;;;;;;;;;;;;;;;;;5061615;28;666;-67
2022/04/17 04:33:01;;;;;;;;;;;;;;;;;;5059867;28;1356;-68
2022/04/17 04:35:29;;;;;;;;;;;;;;;;;;5061567;28;820;-68
2022/04/17 04:38:01;;;;;;;;;;;;;;;;;;5061495;28;852;-68
2022/04/17 04:40:30;;;;;;;;;;;;;;;;;;5061363;28;915;-68
2022/04/17 04:42:59;;;;;;;;;;;;;;;;;;5061167;28;1175;-68
2022/04/17 04:48:08;;;;;;;;;;;;;;;;;;5061552;28;1955;-68
2022/04/17 04:50:34;;;;;;;;;;;;;;;;;;5061289;28;898;-68
2022/04/17 04:52:59;;;;;;;;;;;;;;;;;;5060896;28;1288;-68
2022/04/17 04:55:24;;;;;;;;;;;;;;;;;;5061239;28;855;-68
2022/04/17 04:57:50;;;;;;;;;;;;;;;;;;5061178;28;1041;-68
2022/04/17 05:00:15;;;;;;;;;;;;;;;;;;5059808;28;852;-68
2022/04/17 05:02:44;;;;;;;;;;;;;;;;;;5061017;28;1216;-68
2022/04/17 05:05:20;;;;;;;;;;;;;;;;;;5061065;28;847;-67
2022/04/17 05:07:49;;;;;;;;;;;;;;;;;;5061070;28;1889;-68
2022/04/17 05:10:20;;;;;;;;;;;;;;;;;;5061030;28;816;-68
2022/04/17 05:12:49;;;;;;;;;;;;;;;;;;5059949;28;1199;-68
2022/04/17 05:15:15;;;;;;;;;;;;;;;;;;5060862;28;878;-68
2022/04/17 05:17:41;;;;;;;;;;;;;;;;;;5061051;28;1004;-68
2022/04/17 05:20:07;;;;;;;;;;;;;;;;;;5060876;28;1144;-68
2022/04/17 05:22:44;;;;;;;;;;;;;;;;;;5060099;28;1282;-69
2022/04/17 05:25:18;;;;;;;;;;;;;;;;;;5060637;28;1131;-68
2022/04/17 05:27:43;;;;;;;;;;;;;;;;;;5060837;28;1894;-69
2022/04/17 05:30:09;;;;;;;;;;;;;;;;;;5060592;28;1156;-68
2022/04/17 05:32:40;;;;;;;;;;;;;;;;;;5058945;28;1307;-68
2022/04/17 05:35:05;;;;;;;;;;;;;;;;;;5060703;28;863;-68
2022/04/17 05:37:45;;;;;;;;;;;;;;;;;;5060635;28;902;-68
2022/04/17 05:40:13;;;;;;;;;;;;;;;;;;5060569;28;1136;-68
2022/04/17 05:42:39;;;;;;;;;;;;;;;;;;5060214;28;1290;-69
2022/04/17 05:45:04;;;;;;;;;;;;;;;;;;5060551;28;922;-69
2022/04/17 05:47:29;;;;;;;;;;;;;;;;;;5060618;28;1890;-69
2022/04/17 05:49:55;;;;;;;;;;;;;;;;;;5060467;28;1102;-69
2022/04/17 05:52:49;;;;;;;;;;;;;;;;;;5059948;28;1176;-69
2022/04/17 05:55:24;;;;;;;;;;;;;;;;;;5060574;28;839;-69
2022/04/17 05:57:52;;;;;;;;;;;;;;;;;;5060721;28;745;-69
2022/04/17 06:00:17;;;;;;;;;;;;;;;;;;5060074;28;1116;-70
2022/04/17 06:02:52;;;;;;;;;;;;;;;;;;5059532;28;1237;-67
2022/04/17 06:05:27;;;;;;;;;;;;;;;;;;5060437;28;872;-69
2022/04/17 06:07:52;;;;;;;;;;;;;;;;;;5060214;28;1890;-68
2022/04/17 06:10:17;;;;;;;;;;;;;;;;;;5060248;28;946;-67
2022/04/17 06:12:42;;;;;;;;;;;;;;;;;;5059722;28;1294;-68
2022/04/17 06:15:08;;;;;;;;;;;;;;;;;;5060087;28;899;-67
2022/04/17 06:17:38;;;;;;;;;;;;;;;;;;5060241;28;910;-68
2022/04/17 06:20:05;;;;;;;;;;;;;;;;;;5060166;28;863;-68
2022/04/17 06:22:30;;;;;;;;;;;;;;;;;;5059833;28;1358;-68
2022/04/17 06:24:55;;;;;;;;;;;;;;;;;;5060045;28;918;-68
2022/04/17 06:27:21;;;;;;;;;;;;;;;;;;5059971;28;1902;-68
2022/04/17 06:29:49;;;;;;;;;;;;;;;;;;5060010;28;871;-67
2022/04/17 06:32:14;;;;;;;;;;;;;;;;;;5059349;28;1278;-67
2022/04/17 06:34:40;;;;;;;;;;;;;;;;;;5061140;28;954;-68
2022/04/17 06:37:05;;;;;;;;;;;;;;;;;;5063320;28;831;-68
2022/04/17 06:39:30;;;;;;;;;;;;;;;;;;5063363;28;803;-68
2022/04/17 06:41:57;;;;;;;;;;;;;;;;;;5062310;28;1271;-69
2022/04/17 06:44:22;;;;;;;;;;;;;;;;;;5063321;28;874;-68
2022/04/17 06:46:47;;;;;;;;;;;;;;;;;;5063171;28;960;-69
2022/04/17 06:49:13;;;;;;;;;;;;;;;;;;5063220;28;1898;-69
2022/04/17 06:51:39;;;;;;;;;;;;;;;;;;5060298;28;1254;-69
2022/04/17 06:54:05;;;;;;;;;;;;;;;;;;5042901;28;883;-68
2022/04/17 06:56:30;;;;;;;;;;;;;;;;;;5042987;28;840;-67
2022/04/17 06:58:55;;;;;;;;;;;;;;;;;;5043027;28;820;-68
2022/04/17 07:01:20;;;;;;;;;;;;;;;;;;5043062;28;1017;-68
2022/04/17 07:03:46;;;;;;;;;;;;;;;;;;5042595;28;1263;-68
2022/04/17 07:06:11;;;;;;;;;;;;;;;;;;5042794;28;1010;-68
2022/04/17 07:08:36;;;;;;;;;;;;;;;;;;5042901;28;1902;-68
2022/04/17 07:11:02;;;;;;;;;;;;;;;;;;5042777;28;903;-68
2022/04/17 07:13:27;;;;;;;;;;;;;;;;;;5042246;28;1200;-67
2022/04/17 07:15:52;;;;;;;;;;;;;;;;;;5043032;28;812;-67
2022/04/17 07:18:18;;;;;;;;;;;;;;;;;;5042734;28;942;-67
2022/04/17 07:20:43;;;;;;;;;;;;;;;;;;5042545;28;903;-68
2022/04/17 07:23:08;;;;;;;;;;;;;;;;;;5042159;28;1212;-68
2022/04/17 07:25:34;;;;;;;;;;;;;;;;;;5042597;28;926;-67
2022/04/17 07:27:59;;;;;;;;;;;;;;;;;;5042478;28;1906;-68
2022/04/17 07:30:26;;;;;;;;;;;;;;;;;;5042544;28;824;-68
2022/04/17 07:32:55;;;;;;;;;;;;;;;;;;5041698;28;1271;-68
2022/04/17 07:35:22;;;;;;;;;;;;;;;;;;5042415;28;836;-68
2022/04/17 07:37:54;;;;;;;;;;;;;;;;;;5042424;28;891;-68
2022/04/17 07:40:21;;;;;;;;;;;;;;;;;;5042645;28;998;-68
2022/04/17 07:42:46;;;;;;;;;;;;;;;;;;5042264;28;1200;-68
2022/04/17 07:45:13;;;;;;;;;;;;;;;;;;5040999;28;813;-68
2022/04/17 07:47:38;;;;;;;;;;;;;;;;;;5042587;28;1902;-68
2022/04/17 07:50:05;;;;;;;;;;;;;;;;;;5042142;28;867;-68
2022/04/17 07:52:30;;;;;;;;;;;;;;;;;;5041691;28;1248;-68
2022/04/17 07:54:55;;;;;;;;;;;;;;;;;;5042141;28;1018;-68
2022/04/17 07:57:20;;;;;;;;;;;;;;;;;;5042085;28;954;-68
2022/04/17 07:59:46;;;;;;;;;;;;;;;;;;5042073;28;954;-68
2022/04/17 08:02:28;;;;;;;;;;;;;;;;;;5041525;28;1275;-69
2022/04/17 08:04:53;;;;;;;;;;;;;;;;;;5041988;28;855;-68
2022/04/17 08:07:19;;;;;;;;;;;;;;;;;;5041663;28;1961;-68
2022/04/17 08:09:44;;;;;;;;;;;;;;;;;;5041851;28;914;-68
2022/04/17 08:12:09;;;;;;;;;;;;;;;;;;5041255;28;1227;-68
2022/04/17 08:14:34;;;;;;;;;;;;;;;;;;5041535;28;998;-68
2022/04/17 08:17:00;;;;;;;;;;;;;;;;;;5041808;28;950;-68
2022/04/17 08:19:25;;;;;;;;;;;;;;;;;;5041879;28;805;-68
2022/04/17 08:21:51;;;;;;;;;;;;;;;;;;5041263;28;1294;-68
2022/04/17 08:24:16;;;;;;;;;;;;;;;;;;5041469;28;858;-68
2022/04/17 08:26:42;;;;;;;;;;;;;;;;;;5040404;28;1266;-68
2022/04/17 08:29:09;;;;;;;;;;;;;;;;;;5041655;28;1961;-68
2022/04/17 08:31:34;;;;;;;;;;;;;;;;;;5041623;28;1274;-68
2022/04/17 08:34:00;;;;;;;;;;;;;;;;;;5039889;28;1286;-68
2022/04/17 08:36:25;;;;;;;;;;;;;;;;;;5041536;28;835;-68
2022/04/17 08:38:50;;;;;;;;;;;;;;;;;;5041501;28;1017;-69
2022/04/17 08:41:17;;;;;;;;;;;;;;;;;;5041430;28;910;-68
2022/04/17 08:43:42;;;;;;;;;;;;;;;;;;5040627;28;1215;-67
2022/04/17 08:46:10;;;;;;;;;;;;;;;;;;5041375;28;827;-69
2022/04/17 08:48:35;;;;;;;;;;;;;;;;;;5041362;28;1910;-68
2022/04/17 08:51:02;;;;;;;;;;;;;;;;;;5041151;28;1009;-67
2022/04/17 08:53:27;;;;;;;;;;;;;;;;;;5049878;28;1177;-68
2022/04/17 08:55:52;;;;;;;;;;;;;;;;;;5060513;28;1116;-70
2022/04/17 08:58:18;;;;;;;;;;;;;;;;;;5061123;28;820;-68
2022/04/17 09:00:43;;;;;;;;;;;;;;;;;;5061446;28;846;-69
2022/04/17 09:03:09;;;;;;;;;;;;;;;;;;5060776;28;1215;-69
2022/04/17 09:05:34;;;;;;;;;;;;;;;;;;5061118;28;829;-70
2022/04/17 09:08:10;;;;;;;;;;;;;;;;;;5060871;28;1906;-69
2022/04/17 09:10:35;;;;;;;;;;;;;;;;;;5059770;28;1539;-68
2022/04/17 09:13:02;;;;;;;;;;;;;;;;;;5060399;28;1204;-69
2022/04/17 09:15:32;;;;;;;;;;;;;;;;;;5060942;28;836;-70
2022/04/17 09:17:57;;;;;;;;;;;;;;;;;;5059687;28;841;-68
2022/04/17 09:20:24;;;;;;;;;;;;;;;;;;5060811;28;914;-68
2022/04/17 09:23:07;;;;;;;;;;;;;;;;;;5060441;28;1208;-68
2022/04/17 09:25:33;;;;;;;;;;;;;;;;;;5060920;28;812;-69
2022/04/17 09:28:05;;;;;;;;;;;;;;;;;;5059396;28;1910;-68
2022/04/17 09:30:32;;;;;;;;;;;;;;;;;;5060737;28;906;-67
2022/04/17 09:32:58;;;;;;;;;;;;;;;;;;5060201;28;1200;-68
2022/04/17 09:35:23;;;;;;;;;;;;;;;;;;5060635;28;973;-68
2022/04/17 09:37:49;;;;;;;;;;;;;;;;;;5060693;28;1057;-69
2022/04/17 09:40:18;;;;;;;;;;;;;;;;;;5060617;28;843;-68
2022/04/17 09:42:43;;;;;;;;;;;;;;;;;;5060282;28;1189;-69
2022/04/17 09:45:09;;;;;;;;;;;;;;;;;;5059978;28;1001;-69
2022/04/17 09:47:34;;;;;;;;;;;;;;;;;;5060456;28;1971;-68
2022/04/17 09:49:59;;;;;;;;;;;;;;;;;;5060506;28;939;-69
2022/04/17 09:52:27;;;;;;;;;;;;;;;;;;5060230;28;1204;-68
2022/04/17 09:54:53;;;;;;;;;;;;;;;;;;5060392;28;1014;-69
2022/04/17 09:57:31;;;;;;;;;;;;;;;;;;5060303;28;800;-67
2022/04/17 09:59:57;;;;;;;;;;;;;;;;;;5060388;28;998;-68
2022/04/17 10:02:24;;;;;;;;;;;;;;;;;;5060116;28;1259;-68
2022/04/17 10:04:49;;;;;;;;;;;;;;;;;;5060299;28;863;-67
2022/04/17 10:07:17;;;;;;;;;;;;;;;;;;5060560;28;1957;-70
2022/04/17 10:09:43;;;;;;;;;;;;;;;;;;5063944;28;1005;-71
2022/04/17 10:12:08;;;;;;;;;;;;;;;;;;5063408;28;1220;-68
2022/04/17 10:14:35;;;;;;;;;;;;;;;;;;5063192;28;914;-67
2022/04/17 10:17:01;;;;;;;;;;;;;;;;;;5063672;28;1052;-67
2022/04/17 10:19:27;;;;;;;;;;;;;;;;;;5063693;28;1001;-69
2022/04/17 10:21:53;;;;;;;;;;;;;;;;;;5063142;28;1251;-68
2022/04/17 10:24:19;;;;;;;;;;;;;;;;;;5063436;28;875;-70
2022/04/17 10:26:46;;;;;;;;;;;;;;;;;;5063675;28;831;-67
2022/04/17 10:29:13;;;;;;;;;;;;;;;;;;5063483;28;1889;-68
2022/04/17 10:31:58;;;;;;;;;;;;;;;;;;5063524;28;1212;-69
2022/04/17 10:34:42;;;;;;;;;;;;;;;;;;5063263;28;863;-68
2022/04/17 10:37:07;;;;;;;;;;;;;;;;;;5063352;28;812;-68
2022/04/17 10:39:35;;;;;;;;;;;;;;;;;;5063286;28;867;-68
2022/04/17 10:42:00;;;;;;;;;;;;;;;;;;5063121;28;1211;-68
2022/04/17 10:44:31;;;;;;;;;;;;;;;;;;5063144;28;871;-68
2022/04/17 10:46:56;;;;;;;;;;;;;;;;;;5063230;28;906;-68
2022/04/17 10:49:26;;;;;;;;;;;;;;;;;;5063144;28;1956;-68
2022/04/17 10:51:57;;;;;;;;;;;;;;;;;;5061451;28;1271;-68
2022/04/17 10:54:23;;;;;;;;;;;;;;;;;;5053139;28;1487;-68
2022/04/17 10:56:54;;;;;;;;;;;;;;;;;;5043029;28;812;-68
2022/04/17 10:59:30;;;;;;;;;;;;;;;;;;5043016;28;824;-68
2022/04/17 11:02:15;;;;;;;;;;;;;;;;;;5042491;28;1192;-68
2022/04/17 11:04:54;;;;;;;;;;;;;;;;;;5042427;28;1309;-68
2022/04/17 11:07:27;;;;;;;;;;;;;;;;;;5041591;28;1898;-68
2022/04/17 11:10:06;;;;;;;;;;;;;;;;;;5042902;28;879;-68
2022/04/17 11:12:32;;;;;;;;;;;;;;;;;;5042407;28;1160;-68
2022/04/17 11:15:17;;;;;;;;;;;;;;;;;;5042113;28;1014;-68
2022/04/17 11:17:43;;;;;;;;;;;;;;;;;;5042643;28;1187;-68
2022/04/17 11:20:09;;;;;;;;;;;;;;;;;;5041966;28;1010;-68
2022/04/17 11:22:38;;;;;;;;;;;;;;;;;;5042341;28;1188;-67
2022/04/17 11:25:05;;;;;;;;;;;;;;;;;;5042384;28;812;-67
2022/04/17 11:27:42;;;;;;;;;;;;;;;;;;5042365;28;1905;-68
2022/04/17 11:30:28;;;;;;;;;;;;;;;;;;5042676;28;902;-67
2022/04/17 11:32:54;;;;;;;;;;;;;;;;;;5041754;28;1175;-68
2022/04/17 11:35:29;;;;;;;;;;;;;;;;;;5042533;28;880;-68
2022/04/17 11:37:56;;;;;;;;;;;;;;;;;;5042438;28;910;-68
2022/04/17 11:40:23;;;;;;;;;;;;;;;;;;5042379;28;901;-68
2022/04/17 11:42:50;;;;;;;;;;;;;;;;;;5041841;28;1269;-68
2022/04/17 11:45:26;;;;;;;;;;;;;;;;;;5042226;28;887;-68
2022/04/17 11:47:53;;;;;;;;;;;;;;;;;;5042153;28;1898;-67
2022/04/17 11:50:20;;;;;;;;;;;;;;;;;;5042092;28;958;-67
2022/04/17 11:52:49;;;;;;;;;;;;;;;;;;5041826;28;1267;-68
2022/04/17 11:55:14;;;;;;;;;;;;;;;;;;5042190;28;914;-68
2022/04/17 11:57:39;;;;;;;;;;;;;;;;;;5042127;28;820;-68
2022/04/17 12:00:05;;;;;;;;;;;;;;;;;;5041786;28;891;-68
2022/04/17 12:02:31;;;;;;;;;;;;;;;;;;5041431;28;1307;-68
2022/04/17 12:05:04;;;;;;;;;;;;;;;;;;5041345;28;836;-67
2022/04/17 12:07:29;;;;;;;;;;;;;;;;;;5041900;28;1910;-67
2022/04/17 12:10:08;;;;;;;;;;;;;;;;;;5042038;28;887;-67
2022/04/17 12:12:34;;;;;;;;;;;;;;;;;;5041327;28;1290;-67
2022/04/17 12:15:03;;;;;;;;;;;;;;;;;;5041734;28;823;-67
2022/04/17 12:17:29;;;;;;;;;;;;;;;;;;5041626;28;847;-67
2022/04/17 12:19:54;;;;;;;;;;;;;;;;;;5041678;28;1049;-67
2022/04/17 12:22:19;;;;;;;;;;;;;;;;;;5041246;28;1228;-67
2022/04/17 12:24:45;;;;;;;;;;;;;;;;;;5041629;28;815;-67
2022/04/17 12:27:14;;;;;;;;;;;;;;;;;;5041653;28;946;-67
2022/04/17 12:29:40;;;;;;;;;;;;;;;;;;5041532;28;1902;-68
2022/04/17 12:32:13;;;;;;;;;;;;;;;;;;5039995;28;1287;-67
2022/04/17 12:34:39;;;;;;;;;;;;;;;;;;5041451;28;902;-68
2022/04/17 12:37:25;;;;;;;;;;;;;;;;;;5041488;28;859;-67
2022/04/17 12:39:50;;;;;;;;;;;;;;;;;;5041014;28;1287;-67
2022/04/17 12:42:16;;;;;;;;;;;;;;;;;;5041100;28;1191;-67
2022/04/17 12:44:41;;;;;;;;;;;;;;;;;;5040895;28;887;-68
2022/04/17 12:47:11;;;;;;;;;;;;;;;;;;5041314;28;895;-68
2022/04/17 12:49:36;;;;;;;;;;;;;;;;;;5041318;28;1902;-69
2022/04/17 12:52:01;;;;;;;;;;;;;;;;;;5041023;28;1192;-68
2022/04/17 12:54:33;;;;;;;;;;;;;;;;;;5041139;28;918;-67
2022/04/17 12:57:01;;;;;;;;;;;;;;;;;;5040987;28;1156;-67
2022/04/17 12:59:27;;;;;;;;;;;;;;;;;;5041154;28;843;-67
2022/04/17 13:01:52;;;;;;;;;;;;;;;;;;5040900;28;1200;-67
2022/04/17 13:04:20;;;;;;;;;;;;;;;;;;5041141;28;997;-67
2022/04/17 13:06:46;;;;;;;;;;;;;;;;;;5040017;28;1215;-68
2022/04/17 13:09:13;;;;;;;;;;;;;;;;;;5041079;28;1973;-68
2022/04/17 13:11:43;;;;;;;;;;;;;;;;;;5040662;28;1275;-67
2022/04/17 13:14:08;;;;;;;;;;;;;;;;;;5041174;28;875;-67
2022/04/17 13:16:33;;;;;;;;;;;;;;;;;;5040884;28;892;-67
2022/04/17 13:18:59;;;;;;;;;;;;;;;;;;5041103;28;812;-68
2022/04/17 13:21:24;;;;;;;;;;;;;;;;;;5040711;28;934;-68
2022/04/17 13:23:50;;;;;;;;;;;;;;;;;;5040514;28;1173;-68
2022/04/17 13:26:15;;;;;;;;;;;;;;;;;;5040680;28;839;-68
2022/04/17 13:28:41;;;;;;;;;;;;;;;;;;5040708;28;1910;-68
2022/04/17 13:31:06;;;;;;;;;;;;;;;;;;5040886;28;1073;-68
2022/04/17 13:33:32;;;;;;;;;;;;;;;;;;5039317;28;1287;-67
2022/04/17 13:35:57;;;;;;;;;;;;;;;;;;5040668;28;1073;-68
2022/04/17 13:38:22;;;;;;;;;;;;;;;;;;5039583;28;1185;-68
2022/04/17 13:40:47;;;;;;;;;;;;;;;;;;5040581;28;817;-68
2022/04/17 13:43:13;;;;;;;;;;;;;;;;;;5042122;28;1267;-67
2022/04/17 13:45:39;;;;;;;;;;;;;;;;;;5044079;28;899;-67
2022/04/17 13:48:04;;;;;;;;;;;;;;;;;;5044133;28;1901;-68
2022/04/17 13:50:30;;;;;;;;;;;;;;;;;;5044170;28;909;-67
2022/04/17 13:52:56;;;;;;;;;;;;;;;;;;5043885;28;1287;-67
2022/04/17 13:55:21;;;;;;;;;;;;;;;;;;5043850;28;844;-70
2022/04/17 13:57:48;;;;;;;;;;;;;;;;;;5044056;28;927;-68
2022/04/17 14:00:13;;;;;;;;;;;;;;;;;;5043986;28;832;-68
2022/04/17 14:02:38;;;;;;;;;;;;;;;;;;5043656;28;1258;-68
2022/04/17 14:05:04;;;;;;;;;;;;;;;;;;5043850;28;979;-68
2022/04/17 14:07:30;;;;;;;;;;;;;;;;;;5043337;28;1902;-68
2022/04/17 14:09:56;;;;;;;;;;;;;;;;;;5043744;28;824;-69
2022/04/17 14:12:22;;;;;;;;;;;;;;;;;;5043251;28;1267;-68
2022/04/17 14:14:55;;;;;;;;;;;;;;;;;;5044041;28;843;-68
2022/04/17 14:17:20;;;;;;;;;;;;;;;;;;5043725;28;898;-68
2022/04/17 14:19:45;;;;;;;;;;;;;;;;;;5042463;28;944;-69
2022/04/17 14:22:10;;;;;;;;;;;;;;;;;;5043295;28;1275;-67
2022/04/17 14:24:35;;;;;;;;;;;;;;;;;;5043632;28;891;-69
2022/04/17 14:27:01;;;;;;;;;;;;;;;;;;5043532;28;950;-67
2022/04/17 14:29:26;;;;;;;;;;;;;;;;;;5043416;28;1898;-68
2022/04/17 14:31:51;;;;;;;;;;;;;;;;;;5041920;28;1253;-67
2022/04/17 14:34:16;;;;;;;;;;;;;;;;;;5043569;28;781;-70
2022/04/17 14:36:42;;;;;;;;;;;;;;;;;;5043328;28;1065;-69
2022/04/17 14:39:07;;;;;;;;;;;;;;;;;;5043429;28;851;-68
2022/04/17 14:41:32;;;;;;;;;;;;;;;;;;5043194;28;1200;-68
2022/04/17 14:43:58;;;;;;;;;;;;;;;;;;5043152;28;919;-67
2022/04/17 14:46:23;;;;;;;;;;;;;;;;;;5043111;28;947;-68
2022/04/17 14:48:48;;;;;;;;;;;;;;;;;;5043252;28;1889;-68
2022/04/17 14:51:14;;;;;;;;;;;;;;;;;;5043247;28;874;-69
2022/04/17 14:53:39;;;;;;;;;;;;;;;;;;5042803;28;1314;-69
2022/04/17 14:56:05;;;;;;;;;;;;;;;;;;5042512;28;926;-67
2022/04/17 14:58:30;;;;;;;;;;;;;;;;;;5043113;28;1057;-67
2022/04/17 15:00:55;;;;;;;;;;;;;;;;;;5043110;28;757;-70
2022/04/17 15:03:21;;;;;;;;;;;;;;;;;;5042900;28;1204;-67
2022/04/17 15:05:46;;;;;;;;;;;;;;;;;;5042493;28;823;-68
2022/04/17 15:08:12;;;;;;;;;;;;;;;;;;5042438;28;1895;-68
2022/04/17 15:10:37;;;;;;;;;;;;;;;;;;5042833;28;970;-68
2022/04/17 15:13:04;;;;;;;;;;;;;;;;;;5042307;28;1318;-68
2022/04/17 15:15:29;;;;;;;;;;;;;;;;;;5042730;28;918;-70
2022/04/17 15:17:55;;;;;;;;;;;;;;;;;;5042772;28;926;-68
2022/04/17 15:20:20;;;;;;;;;;;;;;;;;;5042656;28;835;-68
2022/04/17 15:22:45;;;;;;;;;;;;;;;;;;5041012;28;1196;-69
2022/04/17 15:25:10;;;;;;;;;;;;;;;;;;5042837;28;940;-69
2022/04/17 15:27:36;;;;;;;;;;;;;;;;;;5042464;28;1902;-69
2022/04/17 15:30:01;;;;;;;;;;;;;;;;;;5042512;28;855;-69
2022/04/17 15:32:26;;;;;;;;;;;;;;;;;;5042140;28;1201;-70
2022/04/17 15:34:51;;;;;;;;;;;;;;;;;;5042469;28;906;-69
2022/04/17 15:37:16;;;;;;;;;;;;;;;;;;5042281;28;994;-69
2022/04/17 15:39:42;;;;;;;;;;;;;;;;;;5042470;28;899;-68
2022/04/17 15:42:08;;;;;;;;;;;;;;;;;;5042063;28;1212;-68
2022/04/17 15:50:01;;;;;;;;;;;;;;;;;;5042545;28;718;-69
2022/04/17 15:52:26;;;;;;;;;;;;;;;;;;5042001;28;1275;-68
2022/04/17 15:54:52;;;;;;;;;;;;;;;;;;5042255;28;1006;-68
2022/04/17 15:57:19;;;;;;;;;;;;;;;;;;5041985;28;831;-71
2022/04/17 15:59:44;;;;;;;;;;;;;;;;;;5042556;28;776;-68
2022/04/17 16:02:09;;;;;;;;;;;;;;;;;;5041679;28;1157;-67
2022/04/17 16:04:34;;;;;;;;;;;;;;;;;;5042038;28;870;-67
2022/04/17 16:07:00;;;;;;;;;;;;;;;;;;5041723;28;871;-67
2022/04/17 16:09:25;;;;;;;;;;;;;;;;;;5041952;28;1894;-69
2022/04/17 16:11:50;;;;;;;;;;;;;;;;;;5041473;28;1231;-68
2022/04/17 16:14:15;;;;;;;;;;;;;;;;;;5041938;28;949;-68
2022/04/17 16:16:40;;;;;;;;;;;;;;;;;;5041882;28;973;-68
2022/04/17 16:19:06;;;;;;;;;;;;;;;;;;5041928;28;828;-68
2022/04/17 16:21:32;;;;;;;;;;;;;;;;;;5041647;28;1200;-68
2022/04/17 16:23:58;;;;;;;;;;;;;;;;;;5041396;28;868;-68
2022/04/17 16:26:24;;;;;;;;;;;;;;;;;;5041562;28;832;-68
2022/04/17 16:28:49;;;;;;;;;;;;;;;;;;5040489;28;1989;-68
2022/04/17 16:31:14;;;;;;;;;;;;;;;;;;5041398;28;997;-68
2022/04/17 16:33:39;;;;;;;;;;;;;;;;;;5041500;28;1298;-68
2022/04/17 16:36:05;;;;;;;;;;;;;;;;;;5041771;28;867;-68
2022/04/17 16:38:31;;;;;;;;;;;;;;;;;;5041514;28;831;-68
2022/04/17 16:40:56;;;;;;;;;;;;;;;;;;5040163;28;867;-68
2022/04/17 16:43:22;;;;;;;;;;;;;;;;;;5041232;28;1181;-68
2022/04/17 16:45:47;;;;;;;;;;;;;;;;;;5041346;28;1145;-68
2022/04/17 16:48:12;;;;;;;;;;;;;;;;;;5040725;28;1961;-68
2022/04/17 16:50:37;;;;;;;;;;;;;;;;;;5040076;28;911;-68
2022/04/17 16:53:03;;;;;;;;;;;;;;;;;;5039769;28;1263;-68
2022/04/17 16:55:28;;;;;;;;;;;;;;;;;;5041260;28;1065;-68
2022/04/17 17:00:37;;;;;;;;;;;;;;;;;;5041263;28;706;-69
2022/04/17 17:03:02;;;;;;;;;;;;;;;;;;5040760;28;1201;-67
2022/04/17 17:05:28;;;;;;;;;;;;;;;;;;5039829;28;1436;-66
2022/04/17 17:07:53;;;;;;;;;;;;;;;;;;5041272;28;1961;-68
2022/04/17 17:10:18;;;;;;;;;;;;;;;;;;5040997;28;915;-67
2022/04/17 17:12:44;;;;;;;;;;;;;;;;;;5040674;28;1239;-68
2022/04/17 17:15:09;;;;;;;;;;;;;;;;;;5040992;28;797;-69
2022/04/17 17:17:35;;;;;;;;;;;;;;;;;;5040033;28;820;-69
2022/04/17 17:20:01;;;;;;;;;;;;;;;;;;5041087;28;851;-68
2022/04/17 17:22:26;;;;;;;;;;;;;;;;;;5040723;28;1224;-69
2022/04/17 17:24:51;;;;;;;;;;;;;;;;;;5039961;28;820;-70
2022/04/17 17:27:18;;;;;;;;;;;;;;;;;;5040765;28;999;-69
2022/04/17 17:29:45;;;;;;;;;;;;;;;;;;5040816;28;1955;-68
2022/04/17 17:32:10;;;;;;;;;;;;;;;;;;5040506;28;1271;-69
2022/04/17 17:34:35;;;;;;;;;;;;;;;;;;5040982;28;851;-69
2022/04/17 17:37:01;;;;;;;;;;;;;;;;;;5040918;28;792;-69